createdAt,value
2019-05-15T00:01:54.714Z,10.60
2019-05-15T00:04:25.199Z,10.50
2019-05-15T00:06:58.107Z,10.60
2019-05-15T00:09:28.628Z,10.70
2019-05-15T00:12:00.859Z,10.60
2019-05-15T00:14:32.797Z,10.60
2019-05-15T00:17:03.219Z,10.60
2019-05-15T00:19:35.090Z,10.70
2019-05-15T00:22:05.490Z,10.70
2019-05-15T00:24:38.016Z,10.60
2019-05-15T00:27:08.234Z,10.60
2019-05-15T00:29:39.603Z,10.60
2019-05-15T00:32:09.959Z,10.60
2019-05-15T00:34:40.444Z,10.60
2019-05-15T00:37:10.886Z,10.60
2019-05-15T00:39:41.298Z,10.70
2019-05-15T00:42:11.663Z,10.60
2019-05-15T00:44:42.083Z,10.60
2019-05-15T00:47:12.535Z,10.50
2019-05-15T00:49:42.945Z,10.50
2019-05-15T00:52:13.522Z,10.50
2019-05-15T00:54:43.984Z,10.60
2019-05-15T00:57:14.364Z,10.60
2019-05-15T00:59:48.334Z,10.70
2019-05-15T01:02:18.372Z,10.70
2019-05-15T01:04:48.801Z,10.70
2019-05-15T01:07:19.174Z,10.70
2019-05-15T01:09:49.578Z,10.70
2019-05-15T01:12:19.980Z,10.70
2019-05-15T01:14:50.374Z,10.70
2019-05-15T01:17:20.767Z,10.70
2019-05-15T01:19:52.617Z,10.60
2019-05-15T01:22:23.036Z,10.70
2019-05-15T01:24:53.421Z,10.70
2019-05-15T01:27:23.921Z,10.70
2019-05-15T01:29:54.293Z,10.60
2019-05-15T01:32:28.304Z,10.60
2019-05-15T01:34:58.344Z,10.60
2019-05-15T01:37:28.870Z,10.60
2019-05-15T01:39:59.255Z,10.60
2019-05-15T01:42:31.366Z,10.60
2019-05-15T01:45:03.513Z,10.70
2019-05-15T01:47:33.916Z,10.60
2019-05-15T01:50:08.912Z,10.60
2019-05-15T01:52:39.207Z,10.60
2019-05-15T01:55:10.164Z,10.50
2019-05-15T01:57:40.598Z,10.40
2019-05-15T02:00:11.087Z,10.30
2019-05-15T02:02:41.579Z,10.40
2019-05-15T02:05:13.117Z,10.50
2019-05-15T02:07:43.561Z,10.60
2019-05-15T02:10:14.189Z,10.50
2019-05-15T02:12:44.568Z,10.50
2019-05-15T02:15:15.135Z,10.40
2019-05-15T02:17:45.528Z,10.40
2019-05-15T02:20:18.610Z,10.50
2019-05-15T02:22:48.558Z,10.50
2019-05-15T02:25:19.068Z,10.50
2019-05-15T02:27:49.557Z,10.50
2019-05-15T02:30:28.826Z,10.40
2019-05-15T02:32:53.720Z,10.40
2019-05-15T02:35:24.108Z,10.40
2019-05-15T02:37:54.511Z,10.50
2019-05-15T02:40:24.957Z,10.50
2019-05-15T02:42:55.411Z,10.40
2019-05-15T02:45:25.775Z,10.50
2019-05-15T02:47:59.461Z,10.50
2019-05-15T02:50:29.120Z,10.50
2019-05-15T02:53:00.738Z,10.40
2019-05-15T02:55:31.412Z,10.40
2019-05-15T02:58:01.843Z,10.40
2019-05-15T03:00:41.726Z,10.30
2019-05-15T03:03:04.311Z,10.30
2019-05-15T03:05:34.675Z,10.30
2019-05-15T03:08:05.309Z,10.40
2019-05-15T03:10:39.964Z,10.40
2019-05-15T03:13:09.980Z,10.30
2019-05-15T03:15:40.933Z,10.40
2019-05-15T03:18:11.413Z,10.30
2019-05-15T03:20:41.851Z,10.40
2019-05-15T03:23:12.226Z,10.40
2019-05-15T03:25:42.637Z,10.50
2019-05-15T03:28:14.551Z,10.50
2019-05-15T03:31:12.257Z,10.40
2019-05-15T03:33:25.410Z,10.50
2019-05-15T03:35:54.065Z,10.40
2019-05-15T03:38:21.288Z,10.50
2019-05-15T03:40:51.746Z,10.50
2019-05-15T03:43:22.154Z,10.50
2019-05-15T03:45:52.578Z,10.50
2019-05-15T03:48:23.022Z,10.50
2019-05-15T03:50:54.878Z,10.60
2019-05-15T03:53:25.353Z,10.60
2019-05-15T03:55:58.713Z,10.50
2019-05-15T03:58:29.295Z,10.50
2019-05-15T04:01:00.433Z,10.50
2019-05-15T04:03:31.082Z,10.50
2019-05-15T04:06:01.489Z,10.50
2019-05-15T04:08:31.972Z,10.50
2019-05-15T04:11:05.456Z,10.60
2019-05-15T04:13:39.149Z,10.60
2019-05-15T04:16:10.345Z,10.60
2019-05-15T04:18:40.084Z,10.60
2019-05-15T04:21:10.466Z,10.70
2019-05-15T04:23:41.300Z,10.70
2019-05-15T04:26:12.390Z,10.70
2019-05-15T04:28:44.202Z,10.80
2019-05-15T04:31:14.589Z,10.80
2019-05-15T04:33:45.042Z,10.70
2019-05-15T04:36:18.900Z,10.70
2019-05-15T04:38:50.026Z,10.80
2019-05-15T04:41:20.585Z,11.00
2019-05-15T04:43:50.982Z,11.10
2019-05-15T04:46:21.370Z,11.20
2019-05-15T04:48:51.801Z,11.40
2019-05-15T04:51:22.249Z,11.40
2019-05-15T04:53:52.703Z,11.50
2019-05-15T04:56:23.178Z,11.40
2019-05-15T04:58:53.563Z,11.40
2019-05-15T05:01:24.095Z,11.50
2019-05-15T05:03:54.585Z,11.60
2019-05-15T05:06:25.385Z,11.60
2019-05-15T05:08:59.612Z,11.70
2019-05-15T05:11:29.405Z,11.80
2019-05-15T05:13:59.868Z,11.90
2019-05-15T05:16:30.305Z,11.90
2019-05-15T05:19:00.733Z,11.90
2019-05-15T05:21:31.219Z,11.90
2019-05-15T05:24:01.614Z,11.90
2019-05-15T05:26:33.478Z,12.00
2019-05-15T05:29:03.955Z,12.10
2019-05-15T05:31:34.369Z,12.20
2019-05-15T05:34:04.745Z,12.20
2019-05-15T05:36:35.156Z,12.20
2019-05-15T05:39:09.657Z,12.20
2019-05-15T05:41:39.316Z,12.20
2019-05-15T05:44:09.752Z,12.30
2019-05-15T05:46:40.248Z,12.40
2019-05-15T05:49:10.699Z,12.40
2019-05-15T05:51:41.097Z,12.50
2019-05-15T05:54:11.462Z,12.70
2019-05-15T05:56:41.867Z,12.70
2019-05-15T05:59:12.253Z,12.80
2019-05-15T06:01:44.163Z,12.90
2019-05-15T06:04:14.851Z,13.20
2019-05-15T06:06:45.290Z,13.30
2019-05-15T06:09:15.709Z,13.30
2019-05-15T06:11:46.125Z,13.50
2019-05-15T06:14:18.338Z,13.80
2019-05-15T06:16:48.579Z,14.00
2019-05-15T06:19:20.517Z,13.90
2019-05-15T06:21:56.599Z,13.90
2019-05-15T06:24:24.618Z,13.90
2019-05-15T06:26:55.041Z,13.80
2019-05-15T06:29:28.303Z,13.80
2019-05-15T06:31:58.866Z,13.70
2019-05-15T06:34:29.282Z,13.60
2019-05-15T06:36:59.696Z,13.70
2019-05-15T06:39:30.105Z,13.80
2019-05-15T06:42:00.524Z,13.70
2019-05-15T06:44:30.944Z,13.70
2019-05-15T06:47:01.348Z,13.70
2019-05-15T06:49:31.759Z,13.90
2019-05-15T06:52:02.218Z,14.10
2019-05-15T06:54:32.592Z,14.20
2019-05-15T06:57:03.275Z,14.30
2019-05-15T06:59:33.659Z,14.20
2019-05-15T07:02:04.292Z,14.30
2019-05-15T07:04:34.731Z,14.30
2019-05-15T07:07:08.293Z,14.30
2019-05-15T07:09:38.771Z,14.10
2019-05-15T07:12:09.477Z,14.20
2019-05-15T07:14:39.876Z,14.10
2019-05-15T07:17:12.552Z,14.00
2019-05-15T07:19:42.961Z,13.90
2019-05-15T07:22:13.409Z,13.90
2019-05-15T07:24:43.863Z,13.90
2019-05-15T07:27:14.444Z,13.90
2019-05-15T07:29:44.901Z,14.10
2019-05-15T07:32:15.306Z,14.20
2019-05-15T07:34:45.694Z,14.20
2019-05-15T07:37:16.186Z,14.20
2019-05-15T07:39:48.797Z,14.30
2019-05-15T07:42:18.858Z,14.50
2019-05-15T07:44:49.285Z,14.60
2019-05-15T07:47:19.674Z,14.80
2019-05-15T07:49:50.078Z,14.70
2019-05-15T07:52:22.011Z,14.70
2019-05-15T07:54:52.466Z,14.80
2019-05-15T07:57:22.942Z,14.80
2019-05-15T07:59:53.360Z,14.90
2019-05-15T08:02:24.011Z,14.70
2019-05-15T08:04:54.477Z,14.60
2019-05-15T08:07:27.883Z,14.50
2019-05-15T08:09:59.081Z,14.60
2019-05-15T08:12:30.412Z,14.70
2019-05-15T08:15:00.846Z,14.70
2019-05-15T08:17:31.295Z,14.60
2019-05-15T08:20:01.703Z,14.50
2019-05-15T08:22:32.187Z,14.50
2019-05-15T08:25:02.565Z,14.40
2019-05-15T08:27:33.026Z,14.40
2019-05-15T08:30:04.303Z,14.30
2019-05-15T08:32:34.712Z,14.10
2019-05-15T08:35:09.274Z,14.00
2019-05-15T08:37:39.672Z,13.90
2019-05-15T08:40:10.364Z,13.80
2019-05-15T08:42:42.017Z,13.70
2019-05-15T08:45:12.919Z,13.60
2019-05-15T08:47:43.295Z,13.60
2019-05-15T08:50:15.571Z,13.50
2019-05-15T08:52:48.754Z,13.50
2019-05-15T08:55:20.154Z,13.50
2019-05-15T08:57:55.535Z,13.50
2019-05-15T09:00:22.983Z,13.50
2019-05-15T09:02:53.442Z,13.60
2019-05-15T09:05:23.871Z,13.60
2019-05-15T09:07:58.005Z,13.70
2019-05-15T09:10:28.826Z,13.90
2019-05-15T09:12:59.219Z,13.90
2019-05-15T09:15:29.645Z,14.00
2019-05-15T09:18:09.157Z,14.00
2019-05-15T09:20:34.081Z,14.20
2019-05-15T09:23:04.500Z,14.30
2019-05-15T09:25:38.831Z,14.40
2019-05-15T09:28:08.779Z,14.60
2019-05-15T09:30:39.277Z,14.80
2019-05-15T09:33:09.727Z,14.90
2019-05-15T09:35:40.144Z,15.00
2019-05-15T09:38:10.517Z,15.10
2019-05-15T09:40:46.298Z,15.20
2019-05-15T09:43:13.276Z,15.10
2019-05-15T09:45:43.938Z,15.00
2019-05-15T09:48:14.836Z,14.90
2019-05-15T09:50:45.352Z,15.00
2019-05-15T09:53:18.522Z,15.10
2019-05-15T09:55:49.488Z,15.20
2019-05-15T09:58:21.024Z,15.30
2019-05-15T10:00:53.364Z,15.20
2019-05-15T10:03:23.687Z,15.20
2019-05-15T10:05:54.166Z,15.30
2019-05-15T10:08:24.546Z,15.30
2019-05-15T10:10:55.053Z,15.30
2019-05-15T10:13:25.430Z,15.20
2019-05-15T10:15:55.879Z,15.00
2019-05-15T10:18:28.239Z,14.90
2019-05-15T10:20:58.355Z,14.90
2019-05-15T10:23:29.369Z,14.90
2019-05-15T10:26:01.397Z,14.80
2019-05-15T10:28:31.771Z,14.80
2019-05-15T10:31:02.190Z,14.80
2019-05-15T10:33:34.106Z,14.90
2019-05-15T10:36:04.578Z,14.90
2019-05-15T10:38:34.954Z,14.70
2019-05-15T10:41:13.867Z,14.70
2019-05-15T10:43:45.809Z,14.70
2019-05-15T10:46:13.785Z,14.70
2019-05-15T10:48:44.296Z,14.70
2019-05-15T10:51:14.743Z,14.80
2019-05-15T10:53:45.185Z,15.00
2019-05-15T10:56:15.625Z,15.10
2019-05-15T10:58:50.226Z,15.10
2019-05-15T11:01:19.205Z,15.10
2019-05-15T11:03:49.912Z,15.10
2019-05-15T11:06:20.280Z,15.10
2019-05-15T11:08:51.596Z,15.20
2019-05-15T11:11:22.184Z,15.40
2019-05-15T11:13:52.558Z,15.40
2019-05-15T11:16:23.094Z,15.30
2019-05-15T11:18:54.941Z,15.30
2019-05-15T11:21:25.431Z,15.20
2019-05-15T11:23:59.008Z,15.00
2019-05-15T11:26:33.447Z,14.80
2019-05-15T11:29:01.489Z,14.70
2019-05-15T11:31:31.963Z,14.60
2019-05-15T11:34:02.370Z,14.50
2019-05-15T11:36:32.875Z,14.80
2019-05-15T11:39:03.644Z,14.90
2019-05-15T11:41:34.097Z,14.90
2019-05-15T11:44:04.585Z,14.80
2019-05-15T11:46:35.181Z,14.60
2019-05-15T11:49:09.316Z,14.50
2019-05-15T11:51:39.117Z,14.40
2019-05-15T11:54:09.573Z,14.30
2019-05-15T11:56:40.005Z,14.30
2019-05-15T11:59:11.921Z,14.30
2019-05-15T12:01:42.501Z,14.20
2019-05-15T12:04:26.611Z,14.10
2019-05-15T12:06:58.283Z,14.20
2019-05-15T12:09:19.533Z,14.20
2019-05-15T12:11:49.945Z,14.20
2019-05-15T12:14:20.326Z,14.30
2019-05-15T12:17:05.483Z,14.20
2019-05-15T12:19:22.860Z,14.20
2019-05-15T12:21:53.279Z,14.10
2019-05-15T12:24:31.622Z,13.90
2019-05-15T12:26:55.806Z,13.80
2019-05-15T12:29:28.579Z,13.90
2019-05-15T12:31:58.938Z,13.90
2019-05-15T12:34:30.501Z,13.90
2019-05-15T12:37:02.374Z,13.90
2019-05-15T12:39:32.795Z,13.90
2019-05-15T12:59:48.898Z,13.80
2019-05-15T13:02:20.748Z,13.80
2019-05-15T13:04:51.261Z,13.90
2019-05-15T13:07:21.677Z,13.70
2019-05-15T13:09:52.125Z,13.60
2019-05-15T13:12:22.618Z,13.50
2019-05-15T13:14:53.305Z,13.50
2019-05-15T13:17:23.813Z,13.40
2019-05-15T13:19:54.185Z,13.40
2019-05-15T13:22:25.192Z,13.40
2019-05-15T13:24:55.673Z,13.50
2019-05-15T13:27:26.133Z,13.60
2019-05-15T13:29:58.344Z,13.70
2019-05-15T13:32:29.225Z,13.80
2019-05-15T13:35:01.362Z,13.80
2019-05-15T13:37:31.846Z,13.70
2019-05-15T13:40:02.216Z,13.50
2019-05-15T13:42:32.687Z,13.40
2019-05-15T13:45:03.124Z,13.30
2019-05-15T13:47:33.609Z,13.30
2019-05-15T13:50:08.223Z,13.20
2019-05-15T13:52:39.269Z,13.00
2019-05-15T13:55:09.976Z,13.00
2019-05-15T13:57:40.409Z,13.00
2019-05-15T14:00:13.107Z,12.90
2019-05-15T14:02:43.490Z,12.80
2019-05-15T14:05:14.033Z,12.70
2019-05-15T14:07:49.399Z,12.60
2019-05-15T14:10:18.137Z,12.60
2019-05-15T14:12:48.613Z,12.40
2019-05-15T14:15:19.227Z,12.40
2019-05-15T14:17:49.613Z,12.40
2019-05-15T14:20:20.078Z,12.40
2019-05-15T14:22:50.573Z,12.30
2019-05-15T14:25:21.025Z,12.20
2019-05-15T14:27:51.453Z,12.10
2019-05-15T14:30:22.120Z,12.20
2019-05-15T14:32:52.605Z,12.20
2019-05-15T14:35:24.444Z,12.10
2019-05-15T14:38:05.462Z,12.20
2019-05-15T14:40:26.955Z,12.20
2019-05-15T14:42:59.413Z,12.20
2019-05-15T14:45:29.895Z,12.00
2019-05-15T14:48:00.373Z,12.00
2019-05-15T14:50:30.831Z,11.90
2019-05-15T14:53:02.897Z,11.90
2019-05-15T14:55:34.670Z,11.80
2019-05-15T14:58:08.275Z,11.80
2019-05-15T15:00:41.358Z,11.80
2019-05-15T15:03:10.997Z,11.80
2019-05-15T15:05:41.470Z,11.80
2019-05-15T15:08:21.784Z,11.80
2019-05-15T15:10:45.481Z,11.70
2019-05-15T15:13:18.171Z,11.70
2019-05-15T15:15:48.544Z,11.80
2019-05-15T15:18:19.008Z,11.70
2019-05-15T15:20:49.483Z,11.80
2019-05-15T15:23:20.087Z,11.80
2019-05-15T15:25:50.454Z,11.80
2019-05-15T15:28:20.860Z,11.70
2019-05-15T15:30:51.333Z,11.60
2019-05-15T15:33:21.837Z,11.70
2019-05-15T15:35:53.111Z,11.60
2019-05-15T15:38:38.181Z,11.60
2019-05-15T15:40:55.577Z,11.60
2019-05-15T15:43:28.676Z,11.60
2019-05-15T15:45:58.490Z,11.60
2019-05-15T15:48:30.382Z,11.60
2019-05-15T15:51:02.327Z,11.60
2019-05-15T15:53:32.772Z,11.50
2019-05-15T15:56:03.320Z,11.50
2019-05-15T15:58:33.742Z,11.50
2019-05-15T16:01:04.185Z,11.40
2019-05-15T16:03:34.605Z,11.50
2019-05-15T16:06:06.632Z,11.40
2019-05-15T16:08:51.604Z,11.40
2019-05-15T16:11:10.964Z,11.50
2019-05-15T16:13:42.841Z,11.50
2019-05-15T16:16:13.318Z,11.50
2019-05-15T16:18:44.642Z,11.50
2019-05-15T16:21:19.123Z,11.50
2019-05-15T16:23:48.730Z,11.40
2019-05-15T16:26:19.595Z,11.40
2019-05-15T16:28:50.085Z,11.40
2019-05-15T16:31:20.453Z,11.40
2019-05-15T16:33:50.855Z,11.30
2019-05-15T16:36:21.302Z,11.40
2019-05-15T16:39:03.909Z,11.40
2019-05-15T16:41:24.074Z,11.40
2019-05-15T16:43:54.476Z,11.40
2019-05-15T16:46:25.009Z,11.40
2019-05-15T16:48:58.175Z,11.40
2019-05-15T16:51:28.814Z,11.40
2019-05-15T16:54:00.008Z,11.40
2019-05-15T16:56:31.965Z,11.30
2019-05-15T16:59:02.423Z,11.40
2019-05-15T17:01:34.329Z,11.40
2019-05-15T17:04:04.823Z,11.30
2019-05-15T17:06:35.237Z,11.30
2019-05-15T17:09:20.702Z,11.30
2019-05-15T17:11:40.398Z,11.30
2019-05-15T17:14:10.883Z,11.30
2019-05-15T17:16:44.510Z,11.30
2019-05-15T17:19:14.882Z,11.30
2019-05-15T17:21:45.258Z,11.30
2019-05-15T17:24:15.755Z,11.30
2019-05-15T17:26:48.276Z,11.30
2019-05-15T17:29:18.675Z,11.40
2019-05-15T17:31:49.468Z,11.30
2019-05-15T17:34:19.894Z,11.40
2019-05-15T17:36:51.961Z,11.40
2019-05-15T17:39:33.648Z,11.40
2019-05-15T17:41:56.009Z,11.40
2019-05-15T17:44:28.651Z,11.30
2019-05-15T17:46:58.788Z,11.40
2019-05-15T17:49:29.235Z,11.40
2019-05-15T17:51:59.715Z,11.30
2019-05-15T17:54:30.226Z,11.30
2019-05-15T17:57:00.670Z,11.30
2019-05-15T17:59:31.357Z,11.30
2019-05-15T18:02:01.826Z,11.30
2019-05-15T18:04:33.108Z,11.20
2019-05-15T18:07:03.524Z,11.20
2019-05-15T18:09:46.665Z,11.20
2019-05-15T18:12:11.215Z,11.30
2019-05-15T18:14:38.459Z,11.30
2019-05-15T18:17:10.415Z,11.20
2019-05-15T18:19:40.858Z,11.20
2019-05-15T18:22:11.364Z,11.10
2019-05-15T18:24:41.815Z,11.10
2019-05-15T18:27:12.409Z,11.20
2019-05-15T18:29:45.289Z,11.10
2019-05-15T18:32:18.775Z,11.20
2019-05-15T18:34:48.922Z,11.10
2019-05-15T18:37:19.458Z,11.10
2019-05-15T18:40:01.186Z,11.00
2019-05-15T18:42:22.216Z,11.00
2019-05-15T18:44:52.602Z,10.90
2019-05-15T18:47:23.103Z,11.00
2019-05-15T18:50:05.237Z,11.00
2019-05-15T18:52:25.627Z,11.00
2019-05-15T18:54:58.564Z,11.00
2019-05-15T18:57:28.192Z,11.00
2019-05-15T18:59:58.645Z,11.00
2019-05-15T19:02:29.130Z,11.00
2019-05-15T19:04:59.503Z,11.00
2019-05-15T19:07:30.028Z,11.00
2019-05-15T19:10:00.456Z,11.10
2019-05-15T19:12:32.334Z,11.00
2019-05-15T19:15:02.709Z,11.00
2019-05-15T19:17:34.625Z,11.00
2019-05-15T19:20:08.425Z,11.00
2019-05-15T19:22:40.996Z,11.00
2019-05-15T19:25:12.518Z,11.00
2019-05-15T19:27:42.935Z,11.00
2019-05-15T19:30:13.828Z,11.00
2019-05-15T19:32:45.109Z,11.00
2019-05-15T19:35:15.914Z,11.00
2019-05-15T19:37:48.882Z,11.00
2019-05-15T19:40:19.594Z,11.00
2019-05-15T19:42:50.097Z,11.00
2019-05-15T19:45:20.792Z,10.90
2019-05-15T19:47:51.246Z,10.90
2019-05-15T19:50:22.045Z,11.00
2019-05-15T19:52:52.493Z,10.90
2019-05-15T19:55:22.986Z,11.00
2019-05-15T19:57:53.437Z,11.00
2019-05-15T20:00:23.848Z,11.00
2019-05-15T20:02:54.259Z,11.00
2019-05-15T20:05:24.845Z,11.00
2019-05-15T20:07:55.321Z,11.00
2019-05-15T20:10:25.762Z,11.00
2019-05-15T20:12:58.313Z,11.00
2019-05-15T20:15:29.139Z,11.10
2019-05-15T20:17:59.564Z,11.00
2019-05-15T20:20:30.307Z,11.00
2019-05-15T20:23:00.798Z,11.00
2019-05-15T20:25:31.198Z,11.00
2019-05-15T20:28:01.706Z,11.00
2019-05-15T20:30:33.736Z,11.00
2019-05-15T20:33:04.106Z,11.00
2019-05-15T20:35:34.778Z,11.00
2019-05-15T20:38:05.157Z,11.10
2019-05-15T20:40:35.674Z,11.10
2019-05-15T20:43:08.041Z,11.10
2019-05-15T20:45:39.764Z,11.10
2019-05-15T20:48:10.193Z,11.10
2019-05-15T20:50:41.567Z,11.10
2019-05-15T20:53:14.269Z,11.20
2019-05-15T20:55:44.956Z,11.20
2019-05-15T20:58:15.464Z,11.20
2019-05-15T21:00:45.854Z,11.30
2019-05-15T21:03:17.929Z,11.30
2019-05-15T21:05:48.818Z,11.20
2019-05-15T21:08:19.398Z,11.20
2019-05-15T21:10:49.851Z,11.30
2019-05-15T21:13:21.173Z,11.30
2019-05-15T21:15:51.633Z,11.30
2019-05-15T21:18:24.021Z,11.30
2019-05-15T21:20:54.123Z,11.30
2019-05-15T21:23:24.535Z,11.30
2019-05-15T21:25:54.982Z,11.20
2019-05-15T21:28:25.395Z,11.30
2019-05-15T21:30:57.700Z,11.20
2019-05-15T21:33:28.111Z,11.20
2019-05-15T21:35:58.503Z,11.20
2019-05-15T21:38:28.955Z,11.20
2019-05-15T21:40:59.445Z,11.10
2019-05-15T21:43:29.886Z,11.10
2019-05-15T21:46:00.253Z,11.00
2019-05-15T21:48:30.672Z,10.90
2019-05-15T21:51:01.125Z,11.00
2019-05-15T21:53:31.597Z,11.00
2019-05-15T21:56:03.458Z,11.00
2019-05-15T21:58:33.935Z,11.00
2019-05-15T22:01:04.700Z,11.10
2019-05-15T22:03:35.327Z,11.10
2019-05-15T22:06:05.787Z,11.10
2019-05-15T22:08:38.289Z,11.00
2019-05-15T22:11:08.274Z,11.00
2019-05-15T22:13:39.495Z,11.00
2019-05-15T22:16:10.240Z,10.90
2019-05-15T22:18:40.969Z,10.90
2019-05-15T22:21:11.532Z,10.90
2019-05-15T22:23:42.015Z,10.80
2019-05-15T22:26:12.519Z,10.80
2019-05-15T22:28:42.962Z,10.80
2019-05-15T22:31:13.419Z,10.80
2019-05-15T22:33:48.071Z,10.90
2019-05-15T22:36:18.937Z,10.90
2019-05-15T22:38:50.394Z,10.90
2019-05-15T22:41:20.992Z,11.00
2019-05-15T22:43:51.472Z,11.00
2019-05-15T22:46:22.763Z,11.00
2019-05-15T22:48:53.495Z,11.10
2019-05-15T22:51:23.944Z,11.00
2019-05-15T22:53:54.419Z,11.00
2019-05-15T22:56:24.804Z,11.00
2019-05-15T22:58:55.272Z,11.00
2019-05-15T23:01:25.735Z,11.00
2019-05-15T23:03:58.388Z,10.90
2019-05-15T23:06:28.500Z,10.90
2019-05-15T23:08:58.910Z,10.90
2019-05-15T23:11:30.746Z,10.90
2019-05-15T23:14:01.257Z,10.80
2019-05-15T23:16:33.107Z,10.80
2019-05-15T23:19:03.784Z,10.80
2019-05-15T23:21:37.865Z,10.80
2019-05-15T23:24:08.564Z,10.90
2019-05-15T23:26:39.054Z,10.80
2019-05-15T23:29:11.000Z,10.80
2019-05-15T23:31:41.388Z,10.90
2019-05-15T23:34:13.297Z,10.80
2019-05-15T23:36:43.723Z,10.80
2019-05-15T23:39:14.196Z,10.80
2019-05-15T23:41:46.072Z,10.90
2019-05-15T23:44:18.324Z,10.90
2019-05-15T23:46:50.188Z,10.90
2019-05-15T23:49:20.565Z,10.90
2019-05-15T23:51:50.976Z,10.80
2019-05-15T23:54:22.935Z,10.90
2019-05-15T23:56:54.803Z,10.90
2019-05-15T23:59:25.289Z,10.80
